createdAt,value
2017-07-04T00:00:19.181Z,82.10
2017-07-04T00:02:48.143Z,83.70
2017-07-04T00:05:15.792Z,80.20
2017-07-04T00:07:43.407Z,81.70
2017-07-04T00:10:14.448Z,80.80
2017-07-04T00:12:42.059Z,82.00
2017-07-04T00:15:10.589Z,82.70
2017-07-04T00:17:39.869Z,84.40
2017-07-04T00:20:08.900Z,85.90
2017-07-04T00:22:37.362Z,86.70
2017-07-04T00:25:05.787Z,88.20
2017-07-04T00:27:36.885Z,89.00
2017-07-04T00:30:05.944Z,90.20
2017-07-04T00:32:45.071Z,90.20
2017-07-04T00:35:21.649Z,90.60
2017-07-04T00:38:00.456Z,90.70
2017-07-04T00:40:31.406Z,91.20
2017-07-04T00:43:18.522Z,91.50
2017-07-04T00:52:07.511Z,91.90
2017-07-04T00:58:07.629Z,92.60
2017-07-04T01:04:19.646Z,93.10
2017-07-04T01:07:16.095Z,93.00
2017-07-04T01:16:30.740Z,93.50
2017-07-04T01:22:30.155Z,93.60
2017-07-04T01:25:07.073Z,93.60
2017-07-04T01:31:03.188Z,93.70
2017-07-04T01:34:01.051Z,93.70
2017-07-04T02:03:03.428Z,93.80
2017-07-04T02:05:31.396Z,94.80
2017-07-04T02:07:59.226Z,94.80
2017-07-04T02:10:27.159Z,94.70
2017-07-04T02:12:55.057Z,94.80
2017-07-04T02:15:22.902Z,94.50
2017-07-04T02:17:55.246Z,94.50
2017-07-04T02:20:23.042Z,94.40
2017-07-04T02:22:51.166Z,94.40
2017-07-04T02:25:20.810Z,94.60
2017-07-04T02:27:49.503Z,94.50
2017-07-04T02:30:17.545Z,94.50
2017-07-04T02:32:45.963Z,94.30
2017-07-04T02:35:13.851Z,94.20
2017-07-04T02:37:41.702Z,94.10
2017-07-04T02:40:10.558Z,93.90
2017-07-04T02:42:39.366Z,93.90
2017-07-04T02:45:07.327Z,93.90
2017-07-04T02:47:35.224Z,93.90
2017-07-04T02:50:03.201Z,93.80
2017-07-04T02:52:31.063Z,94.00
2017-07-04T02:54:59.087Z,94.00
2017-07-04T02:57:26.988Z,94.30
2017-07-04T02:59:55.642Z,94.50
2017-07-04T03:02:24.266Z,94.70
2017-07-04T03:04:52.118Z,94.70
2017-07-04T03:07:20.115Z,94.70
2017-07-04T03:09:48.177Z,94.80
2017-07-04T03:12:16.877Z,94.90
2017-07-04T03:14:44.797Z,94.90
2017-07-04T03:17:12.682Z,95.00
2017-07-04T03:19:40.546Z,95.10
2017-07-04T03:22:08.481Z,95.00
2017-07-04T03:24:36.683Z,95.10
2017-07-04T03:27:04.506Z,95.40
2017-07-04T03:29:32.374Z,95.30
2017-07-04T03:32:00.194Z,95.40
2017-07-04T03:34:28.084Z,95.30
2017-07-04T03:36:55.986Z,95.40
2017-07-04T03:39:23.879Z,95.20
2017-07-04T03:41:51.721Z,95.40
2017-07-04T03:44:20.416Z,95.60
2017-07-04T03:46:48.327Z,95.60
2017-07-04T03:49:16.183Z,95.50
2017-07-04T03:51:43.971Z,95.40
2017-07-04T03:54:11.911Z,95.50
2017-07-04T03:56:39.844Z,95.50
2017-07-04T03:59:08.330Z,95.40
2017-07-04T04:01:36.269Z,95.30
2017-07-04T04:04:04.123Z,95.30
2017-07-04T04:06:31.982Z,95.40
2017-07-04T04:09:00.941Z,95.30
2017-07-04T04:11:28.923Z,95.30
2017-07-04T04:13:57.983Z,95.10
2017-07-04T04:16:25.870Z,95.00
2017-07-04T04:18:54.443Z,94.70
2017-07-04T04:21:22.237Z,94.70
2017-07-04T04:23:50.139Z,94.40
2017-07-04T04:26:18.025Z,94.30
2017-07-04T04:28:45.886Z,94.10
2017-07-04T04:31:14.080Z,94.10
2017-07-04T04:33:43.081Z,93.90
2017-07-04T04:36:10.835Z,93.60
2017-07-04T04:38:40.730Z,93.20
2017-07-04T04:41:18.677Z,92.80
2017-07-04T04:43:52.956Z,92.20
2017-07-04T04:54:38.780Z,91.50
2017-07-04T04:57:14.679Z,91.10
2017-07-04T05:06:19.904Z,90.90
2017-07-04T05:08:47.486Z,90.90
2017-07-04T05:11:15.098Z,90.90
2017-07-04T05:13:43.737Z,90.80
2017-07-04T05:16:11.392Z,90.80
2017-07-04T05:18:38.997Z,90.60
2017-07-04T05:21:06.596Z,90.30
2017-07-04T05:23:34.196Z,89.10
2017-07-04T05:26:01.806Z,86.40
2017-07-04T05:28:29.460Z,84.00
2017-07-04T05:30:57.046Z,80.10
2017-07-04T05:33:24.671Z,77.40
2017-07-04T05:35:52.300Z,76.90
2017-07-04T05:38:19.874Z,75.50
2017-07-04T05:40:47.483Z,76.30
2017-07-04T05:43:15.097Z,73.10
2017-07-04T05:45:42.716Z,73.70
2017-07-04T05:48:10.353Z,75.10
2017-07-04T05:50:38.034Z,75.80
2017-07-04T05:53:05.658Z,74.80
2017-07-04T05:55:33.288Z,74.00
2017-07-04T05:58:00.917Z,72.50
2017-07-04T06:00:28.768Z,72.90
2017-07-04T06:02:56.386Z,70.60
2017-07-04T06:05:24.795Z,69.40
2017-07-04T06:07:53.178Z,66.20
2017-07-04T06:10:21.555Z,66.70
2017-07-04T06:12:49.939Z,66.90
2017-07-04T06:15:18.291Z,66.10
2017-07-04T06:17:45.910Z,66.20
2017-07-04T06:20:14.516Z,65.60
2017-07-04T06:22:42.132Z,66.60
2017-07-04T06:25:09.755Z,65.60
2017-07-04T06:27:37.372Z,66.20
2017-07-04T06:30:04.960Z,66.10
2017-07-04T06:32:33.270Z,64.80
2017-07-04T06:35:00.873Z,65.30
2017-07-04T06:37:29.242Z,64.50
2017-07-04T06:39:56.833Z,64.50
2017-07-04T06:42:25.680Z,65.30
2017-07-04T06:44:53.301Z,65.30
2017-07-04T06:47:21.692Z,64.90
2017-07-04T06:49:50.048Z,63.90
2017-07-04T06:52:17.682Z,63.80
2017-07-04T06:54:45.264Z,63.50
2017-07-04T06:57:12.858Z,62.20
2017-07-04T06:59:41.270Z,61.80
2017-07-04T07:02:08.859Z,61.50
2017-07-04T07:04:36.449Z,60.40
2017-07-04T07:07:04.057Z,60.70
2017-07-04T07:09:31.630Z,60.00
2017-07-04T07:11:59.287Z,59.10
2017-07-04T07:14:26.939Z,59.60
2017-07-04T07:16:55.303Z,55.70
2017-07-04T07:19:22.906Z,55.60
2017-07-04T07:21:57.025Z,55.50
2017-07-04T07:24:24.681Z,54.90
2017-07-04T07:26:52.264Z,53.90
2017-07-04T07:29:19.866Z,53.50
2017-07-04T07:31:47.774Z,53.60
2017-07-04T07:34:15.820Z,52.60
2017-07-04T07:36:43.714Z,52.00
2017-07-04T07:39:11.301Z,52.10
2017-07-04T07:41:39.077Z,51.60
2017-07-04T07:44:06.802Z,50.30
2017-07-04T07:46:34.414Z,48.00
2017-07-04T07:49:02.013Z,47.70
2017-07-04T07:51:29.864Z,49.00
2017-07-04T07:53:57.521Z,45.60
2017-07-04T07:56:25.962Z,46.20
2017-07-04T07:58:53.601Z,43.80
2017-07-04T08:01:21.210Z,44.40
2017-07-04T08:03:49.689Z,42.00
2017-07-04T08:06:17.338Z,41.90
2017-07-04T08:08:44.948Z,41.10
2017-07-04T08:11:12.551Z,39.30
2017-07-04T08:13:40.169Z,41.00
2017-07-04T08:16:07.779Z,40.30
2017-07-04T08:18:35.351Z,41.40
2017-07-04T08:21:02.983Z,41.80
2017-07-04T08:23:30.565Z,38.50
2017-07-04T08:25:58.153Z,39.40
2017-07-04T08:28:25.770Z,38.50
2017-07-04T08:30:53.354Z,37.10
2017-07-04T08:33:21.009Z,36.50
2017-07-04T08:35:48.620Z,36.90
2017-07-04T08:38:16.367Z,36.90
2017-07-04T08:40:44.026Z,36.10
2017-07-04T08:43:11.632Z,36.10
2017-07-04T08:45:40.039Z,36.20
2017-07-04T08:48:08.656Z,33.30
2017-07-04T08:50:36.318Z,33.30
2017-07-04T08:53:03.911Z,34.60
2017-07-04T08:55:31.544Z,33.20
2017-07-04T08:57:59.168Z,31.80
2017-07-04T09:00:26.764Z,33.50
2017-07-04T09:02:54.403Z,33.90
2017-07-04T09:05:22.832Z,35.00
2017-07-04T09:07:50.439Z,34.30
2017-07-04T09:10:18.062Z,32.80
2017-07-04T09:12:45.649Z,33.20
2017-07-04T09:15:13.257Z,34.40
2017-07-04T09:17:40.867Z,34.80
2017-07-04T09:20:08.461Z,34.20
2017-07-04T09:22:36.562Z,33.80
2017-07-04T09:25:04.288Z,32.60
2017-07-04T09:27:31.909Z,32.90
2017-07-04T09:30:00.292Z,33.60
2017-07-04T09:32:29.418Z,33.30
2017-07-04T09:34:57.333Z,32.60
2017-07-04T09:37:25.394Z,33.70
2017-07-04T09:39:53.387Z,34.10
2017-07-04T09:42:20.996Z,33.30
2017-07-04T09:44:48.595Z,32.10
2017-07-04T09:47:16.383Z,30.90
2017-07-04T09:49:43.982Z,33.50
2017-07-04T09:52:11.628Z,30.40
2017-07-04T09:54:39.251Z,32.60
2017-07-04T09:57:07.118Z,33.00
2017-07-04T09:59:34.765Z,33.70
2017-07-04T10:02:02.493Z,31.10
2017-07-04T10:04:31.269Z,33.60
2017-07-04T10:06:59.712Z,33.80
2017-07-04T10:09:27.423Z,33.70
2017-07-04T10:11:55.058Z,34.50
2017-07-04T10:14:22.690Z,33.80
2017-07-04T10:16:50.311Z,32.70
2017-07-04T10:19:17.946Z,32.00
2017-07-04T10:21:45.722Z,30.90
2017-07-04T10:24:13.786Z,30.80
2017-07-04T10:26:41.400Z,32.30
2017-07-04T10:29:13.821Z,30.10
2017-07-04T10:31:45.672Z,30.00
2017-07-04T10:34:13.577Z,32.00
2017-07-04T10:36:41.365Z,28.80
2017-07-04T10:39:09.016Z,26.30
2017-07-04T10:41:37.066Z,27.00
2017-07-04T10:44:05.680Z,27.40
2017-07-04T10:46:33.479Z,28.90
2017-07-04T10:49:01.257Z,29.80
2017-07-04T10:51:29.029Z,30.90
2017-07-04T10:53:56.820Z,28.80
2017-07-04T10:56:25.310Z,32.70
2017-07-04T10:58:52.919Z,32.60
2017-07-04T11:01:23.649Z,29.20
2017-07-04T11:03:55.708Z,29.10
2017-07-04T11:06:23.739Z,28.80
2017-07-04T11:09:00.852Z,29.70
2017-07-04T11:11:28.584Z,29.60
2017-07-04T11:13:56.279Z,31.60
2017-07-04T11:16:23.875Z,32.30
2017-07-04T11:18:52.516Z,31.50
2017-07-04T11:21:20.881Z,35.90
2017-07-04T11:23:48.494Z,35.80
2017-07-04T11:26:17.180Z,38.40
2017-07-04T11:28:44.827Z,36.30
2017-07-04T11:31:15.095Z,35.50
2017-07-04T11:33:42.728Z,35.30
2017-07-04T11:36:14.060Z,32.60
2017-07-04T11:38:41.642Z,32.60
2017-07-04T11:41:09.994Z,31.20
2017-07-04T11:43:37.647Z,30.60
2017-07-04T11:46:05.254Z,29.80
2017-07-04T11:48:33.732Z,29.70
2017-07-04T11:51:02.178Z,28.60
2017-07-04T11:53:29.782Z,28.50
2017-07-04T11:55:57.409Z,27.70
2017-07-04T11:58:25.036Z,26.80
2017-07-04T12:00:52.657Z,26.60
2017-07-04T12:03:21.306Z,28.20
2017-07-04T12:05:48.909Z,26.50
2017-07-04T12:08:16.560Z,26.10
2017-07-04T12:10:44.226Z,25.60
2017-07-04T12:13:11.935Z,25.30
2017-07-04T12:15:39.579Z,23.20
2017-07-04T12:18:07.227Z,25.20
2017-07-04T12:20:34.876Z,25.80
2017-07-04T12:23:02.560Z,25.30
2017-07-04T12:25:30.171Z,27.20
2017-07-04T12:27:58.535Z,26.40
2017-07-04T12:30:26.117Z,26.40
2017-07-04T12:32:54.688Z,27.10
2017-07-04T12:35:22.346Z,27.00
2017-07-04T12:37:50.014Z,29.00
2017-07-04T12:40:18.618Z,29.80
2017-07-04T12:42:46.200Z,27.80
2017-07-04T12:45:14.623Z,26.10
2017-07-04T12:47:42.280Z,25.90
2017-07-04T12:50:09.890Z,25.30
2017-07-04T12:52:37.522Z,26.30
2017-07-04T12:55:05.155Z,24.80
2017-07-04T12:57:32.761Z,27.60
2017-07-04T13:00:00.357Z,24.50
2017-07-04T13:02:27.975Z,26.70
2017-07-04T13:04:55.969Z,25.20
2017-07-04T13:07:23.609Z,24.90
2017-07-04T13:09:51.339Z,25.40
2017-07-04T13:12:18.974Z,27.10
2017-07-04T13:14:46.570Z,28.20
2017-07-04T13:17:14.185Z,28.60
2017-07-04T13:19:41.818Z,27.80
2017-07-04T13:22:10.311Z,28.70
2017-07-04T13:24:38.742Z,28.20
2017-07-04T13:27:06.420Z,28.30
2017-07-04T13:29:34.079Z,28.40
2017-07-04T13:32:02.750Z,28.40
2017-07-04T13:34:30.385Z,28.30
2017-07-04T13:36:57.993Z,28.20
2017-07-04T13:39:25.738Z,28.10
2017-07-04T13:41:53.317Z,29.00
2017-07-04T13:44:20.941Z,27.20
2017-07-04T13:46:49.339Z,24.40
2017-07-04T13:49:17.023Z,24.40
2017-07-04T13:51:44.691Z,25.30
2017-07-04T13:54:12.374Z,25.10
2017-07-04T13:56:40.207Z,25.20
2017-07-04T13:59:07.826Z,27.00
2017-07-04T14:01:35.468Z,26.10
2017-07-04T14:04:03.151Z,25.90
2017-07-04T14:06:30.769Z,27.30
2017-07-04T14:08:58.415Z,27.40
2017-07-04T14:11:26.833Z,25.50
2017-07-04T14:13:54.425Z,25.40
2017-07-04T14:16:22.044Z,27.60
2017-07-04T14:18:50.466Z,25.40
2017-07-04T14:21:18.073Z,25.40
2017-07-04T14:23:45.713Z,25.50
2017-07-04T14:26:13.302Z,25.40
2017-07-04T14:28:40.901Z,24.80
2017-07-04T14:31:09.326Z,22.20
2017-07-04T14:33:36.918Z,22.10
2017-07-04T14:36:04.512Z,24.40
2017-07-04T14:38:32.124Z,24.30
2017-07-04T14:40:59.726Z,26.30
2017-07-04T14:43:27.365Z,25.20
2017-07-04T14:45:55.031Z,26.00
2017-07-04T14:48:22.661Z,24.60
2017-07-04T14:50:50.268Z,25.00
2017-07-04T14:53:18.291Z,23.60
2017-07-04T14:55:46.634Z,23.00
2017-07-04T14:58:16.129Z,22.90
2017-07-04T15:00:43.728Z,23.10
2017-07-04T15:03:11.340Z,24.30
2017-07-04T15:05:38.929Z,23.90
2017-07-04T15:08:06.552Z,22.70
2017-07-04T15:10:34.160Z,23.20
2017-07-04T15:13:01.764Z,24.90
2017-07-04T15:15:29.994Z,25.60
2017-07-04T15:17:57.616Z,24.50
2017-07-04T15:20:25.982Z,26.10
2017-07-04T15:22:54.397Z,26.60
2017-07-04T15:25:21.990Z,26.50
2017-07-04T15:27:49.605Z,24.00
2017-07-04T15:30:17.977Z,23.70
2017-07-04T15:32:45.574Z,23.70
2017-07-04T15:35:13.148Z,22.90
2017-07-04T15:37:40.796Z,23.70
2017-07-04T15:40:08.404Z,24.10
2017-07-04T15:42:36.221Z,23.60
2017-07-04T15:45:04.621Z,23.70
2017-07-04T15:47:32.229Z,23.70
2017-07-04T15:49:59.820Z,23.20
2017-07-04T15:52:27.433Z,23.60
2017-07-04T15:54:55.072Z,23.30
2017-07-04T15:57:23.461Z,24.70
2017-07-04T15:59:51.123Z,24.70
2017-07-04T16:02:19.506Z,23.90
2017-07-04T16:04:47.876Z,24.20
2017-07-04T16:07:16.254Z,23.70
2017-07-04T16:09:43.856Z,23.70
2017-07-04T16:12:11.443Z,23.60
2017-07-04T16:14:39.193Z,23.50
2017-07-04T16:17:07.119Z,23.70
2017-07-04T16:19:34.739Z,23.60
2017-07-04T16:22:02.362Z,24.20
2017-07-04T16:24:29.959Z,23.70
2017-07-04T16:26:57.557Z,23.30
2017-07-04T16:29:25.181Z,23.50
2017-07-04T16:31:52.794Z,22.90
2017-07-04T16:34:20.411Z,23.40
2017-07-04T16:36:48.075Z,24.00
2017-07-04T16:39:16.450Z,25.00
2017-07-04T16:41:44.822Z,26.10
2017-07-04T16:44:13.219Z,26.70
2017-07-04T16:46:41.578Z,28.40
2017-07-04T16:49:09.175Z,28.30
2017-07-04T16:51:36.812Z,30.80
2017-07-04T16:54:04.395Z,32.90
2017-07-04T16:56:32.771Z,37.50
2017-07-04T16:59:00.377Z,37.50
2017-07-04T17:01:27.996Z,38.40
2017-07-04T17:03:56.381Z,41.20
2017-07-04T17:06:24.769Z,42.30
2017-07-04T17:08:53.148Z,42.90
2017-07-04T17:11:20.716Z,42.20
2017-07-04T17:13:48.338Z,41.60
2017-07-04T17:16:15.926Z,43.20
2017-07-04T17:18:43.519Z,43.20
2017-07-04T17:21:11.881Z,43.70
2017-07-04T17:23:39.478Z,43.60
2017-07-04T17:26:07.805Z,45.20
2017-07-04T17:28:35.413Z,45.10
2017-07-04T17:31:03.752Z,46.60
2017-07-04T17:33:31.320Z,46.50
2017-07-04T17:35:58.912Z,47.50
2017-07-04T17:38:26.501Z,44.90
2017-07-04T17:40:54.863Z,48.40
2017-07-04T17:43:22.497Z,48.30
2017-07-04T17:45:50.074Z,47.60
2017-07-04T17:48:17.707Z,47.20
2017-07-04T17:50:45.323Z,50.20
2017-07-04T17:53:13.695Z,50.00
2017-07-04T17:55:41.269Z,50.00
2017-07-04T17:58:08.907Z,50.50
2017-07-04T18:00:36.559Z,50.20
2017-07-04T18:03:04.271Z,50.60
2017-07-04T18:05:32.728Z,51.40
2017-07-04T18:08:00.350Z,51.40
2017-07-04T18:10:28.777Z,52.20
2017-07-04T18:12:56.446Z,52.20
2017-07-04T18:15:24.117Z,53.00
2017-07-04T18:17:51.777Z,54.10
2017-07-04T18:20:19.423Z,54.90
2017-07-04T18:22:47.157Z,55.90
2017-07-04T18:25:14.775Z,55.70
2017-07-04T18:27:42.455Z,55.80
2017-07-04T18:30:10.077Z,56.20
2017-07-04T18:32:37.765Z,56.40
2017-07-04T18:35:05.448Z,56.90
2017-07-04T18:37:33.104Z,57.40
2017-07-04T18:40:00.733Z,58.10
2017-07-04T18:42:28.362Z,59.00
2017-07-04T18:44:55.951Z,58.60
2017-07-04T18:47:23.557Z,59.70
2017-07-04T18:49:51.172Z,59.80
2017-07-04T18:52:19.335Z,60.20
2017-07-04T18:54:46.922Z,60.50
2017-07-04T18:57:14.546Z,61.10
2017-07-04T18:59:42.168Z,61.90
2017-07-04T19:02:10.567Z,62.80
2017-07-04T19:04:38.213Z,62.70
2017-07-04T19:07:06.580Z,64.10
2017-07-04T19:09:34.161Z,64.10
2017-07-04T19:12:02.560Z,67.20
2017-07-04T19:14:30.157Z,67.20
2017-07-04T19:16:57.768Z,68.30
2017-07-04T19:19:25.358Z,68.30
2017-07-04T19:21:53.241Z,68.10
2017-07-04T19:24:21.611Z,70.70
2017-07-04T19:26:49.257Z,72.30
2017-07-04T19:29:17.041Z,73.00
2017-07-04T19:31:44.883Z,73.50
2017-07-04T19:34:13.310Z,74.30
2017-07-04T19:36:40.909Z,74.30
2017-07-04T19:39:08.513Z,74.10
2017-07-04T19:41:36.916Z,77.00
2017-07-04T19:44:05.254Z,76.60
2017-07-04T19:46:32.862Z,76.60
2017-07-04T19:49:01.456Z,78.20
2017-07-04T19:51:29.071Z,77.70
2017-07-04T19:53:57.629Z,79.40
2017-07-04T19:56:25.245Z,79.20
2017-07-04T19:58:53.656Z,81.40
2017-07-04T20:01:21.274Z,81.90
2017-07-04T20:03:48.912Z,81.90
2017-07-04T20:06:16.530Z,81.70
2017-07-04T20:08:44.181Z,81.70
2017-07-04T20:11:11.820Z,81.40
2017-07-04T20:13:39.457Z,81.80
2017-07-04T20:16:07.068Z,82.30
2017-07-04T20:18:34.687Z,82.20
2017-07-04T20:21:02.337Z,82.40
2017-07-04T20:23:30.018Z,83.20
2017-07-04T20:25:57.630Z,83.00
2017-07-04T20:28:25.391Z,82.50
2017-07-04T20:30:53.034Z,83.60
2017-07-04T20:33:20.633Z,83.70
2017-07-04T20:35:48.273Z,84.00
2017-07-04T20:38:15.901Z,84.60
2017-07-04T20:40:43.552Z,84.80
2017-07-04T20:43:12.193Z,84.60
2017-07-04T20:45:40.859Z,85.20
2017-07-04T20:48:12.031Z,85.90
2017-07-04T20:50:40.448Z,85.90
2017-07-04T20:53:10.476Z,86.50
2017-07-04T20:55:38.604Z,87.10
2017-07-04T20:58:06.235Z,87.70
2017-07-04T21:00:34.312Z,88.10
2017-07-04T21:03:02.058Z,88.60
2017-07-04T21:05:29.709Z,88.90
2017-07-04T21:07:57.331Z,88.90
2017-07-04T21:10:24.997Z,89.10
2017-07-04T21:12:53.866Z,90.00
2017-07-04T21:15:22.589Z,90.00
2017-07-04T21:17:51.814Z,90.50
2017-07-04T21:20:19.800Z,90.40
2017-07-04T21:22:48.295Z,90.70
2017-07-04T21:25:31.743Z,90.70
2017-07-04T21:28:00.395Z,90.80
2017-07-04T21:30:28.512Z,90.80
2017-07-04T21:32:57.276Z,90.80
2017-07-04T21:35:24.965Z,90.60
2017-07-04T21:37:53.330Z,90.50
2017-07-04T21:40:21.336Z,90.30
2017-07-04T21:42:49.502Z,90.10
2017-07-04T21:45:18.047Z,89.50
2017-07-04T21:47:46.425Z,90.00
2017-07-04T21:50:14.090Z,90.10
2017-07-04T21:52:43.524Z,90.00
2017-07-04T21:55:12.347Z,90.70
2017-07-04T21:57:40.537Z,90.70
2017-07-04T22:00:08.295Z,90.90
2017-07-04T22:02:38.127Z,91.30
2017-07-04T22:05:05.835Z,91.30
2017-07-04T22:07:33.475Z,91.30
2017-07-04T22:10:02.017Z,91.30
2017-07-04T22:12:33.817Z,91.40
2017-07-04T22:15:01.841Z,91.40
2017-07-04T22:17:31.945Z,91.60
2017-07-04T22:20:00.148Z,91.80
2017-07-04T22:22:29.191Z,92.00
2017-07-04T22:24:57.323Z,91.90
2017-07-04T22:27:25.748Z,92.10
2017-07-04T22:29:54.317Z,92.10
2017-07-04T22:32:23.332Z,92.40
2017-07-04T22:34:53.207Z,92.50
2017-07-04T22:37:23.552Z,92.80
2017-07-04T22:39:52.861Z,92.80
2017-07-04T22:42:24.335Z,92.90
2017-07-04T22:44:54.061Z,92.80
2017-07-04T22:47:22.592Z,92.90
2017-07-04T22:49:52.005Z,92.80
2017-07-04T22:52:20.273Z,92.80
2017-07-04T22:54:49.361Z,93.10
2017-07-04T22:57:17.618Z,93.30
2017-07-04T22:59:45.219Z,93.30
2017-07-04T23:02:12.873Z,93.30
2017-07-04T23:04:40.561Z,93.30
2017-07-04T23:07:16.625Z,93.40
2017-07-04T23:09:45.308Z,93.50
2017-07-04T23:12:15.013Z,93.70
2017-07-04T23:14:42.678Z,94.00
2017-07-04T23:17:14.567Z,94.00
2017-07-04T23:19:44.191Z,94.30
2017-07-04T23:22:12.706Z,94.10
2017-07-04T23:24:41.328Z,94.00
2017-07-04T23:27:10.197Z,94.00
2017-07-04T23:30:13.747Z,93.90
2017-07-04T23:32:54.080Z,94.00
2017-07-04T23:35:21.710Z,94.00
2017-07-04T23:37:52.966Z,94.00
2017-07-04T23:40:36.429Z,94.00
2017-07-04T23:43:04.568Z,94.00
2017-07-04T23:45:36.585Z,94.10
2017-07-04T23:48:05.020Z,94.00
2017-07-04T23:50:37.243Z,93.90
2017-07-04T23:53:05.619Z,93.90
2017-07-04T23:55:34.243Z,93.80
2017-07-04T23:58:19.292Z,93.70
